createdAt,value
2023-04-02T01:09:58.830Z,100188.79
2023-04-02T01:12:53.393Z,100193.26
2023-04-02T01:15:30.583Z,100197.54
2023-04-02T01:18:53.608Z,100195.84
2023-04-02T01:21:30.628Z,100196.20
2023-04-02T01:24:08.409Z,100197.86
2023-04-02T01:26:59.837Z,100192.98
2023-04-02T01:29:39.787Z,100193.60
2023-04-02T01:32:14.907Z,100193.70
2023-04-02T01:34:46.956Z,100190.27
2023-04-02T01:37:18.083Z,100191.29
2023-04-02T01:39:56.795Z,100190.84
2023-04-02T01:42:25.888Z,100194.60
2023-04-02T01:45:01.621Z,100190.61
2023-04-02T01:47:30.470Z,100191.68
2023-04-02T01:50:05.013Z,100195.74
2023-04-02T01:52:41.383Z,100193.34
2023-04-02T01:55:13.338Z,100197.00
2023-04-02T01:57:42.422Z,100193.52
2023-04-02T02:00:15.226Z,100193.80
2023-04-02T02:02:49.772Z,100198.20
2023-04-02T02:05:21.101Z,100196.44
2023-04-02T02:07:50.794Z,100194.89
2023-04-02T02:10:24.227Z,100194.77
2023-04-02T02:12:52.601Z,100197.60
2023-04-02T02:15:23.933Z,100195.28
2023-04-02T02:17:58.369Z,100191.02
2023-04-02T02:20:27.630Z,100188.23
2023-04-02T02:22:56.169Z,100189.79
2023-04-02T02:25:27.474Z,100188.42
2023-04-02T02:28:19.241Z,100181.46
2023-04-02T02:30:59.332Z,100183.83
2023-04-02T02:33:32.376Z,100179.00
2023-04-02T02:36:03.699Z,100180.60
2023-04-02T02:38:49.620Z,100176.80
2023-04-02T02:41:44.195Z,100180.73
2023-04-02T02:44:33.653Z,100179.91
2023-04-02T02:47:04.675Z,100180.11
2023-04-02T02:49:35.495Z,100177.81
2023-04-02T02:52:19.968Z,100177.10
2023-04-02T02:55:02.734Z,100174.63
2023-04-02T02:57:41.790Z,100179.02
2023-04-02T03:00:16.278Z,100180.30
2023-04-02T03:02:45.955Z,100178.46
2023-04-02T03:05:17.792Z,100179.02
2023-04-02T03:07:49.742Z,100180.50
2023-04-02T03:10:34.403Z,100180.42
2023-04-02T03:13:25.056Z,100182.70
2023-04-02T03:16:21.529Z,100190.70
2023-04-02T03:19:13.373Z,100187.09
2023-04-02T03:21:55.586Z,100190.33
2023-04-02T03:24:23.864Z,100191.05
2023-04-02T03:26:55.983Z,100196.74
2023-04-02T03:29:29.821Z,100202.06
2023-04-02T03:32:27.339Z,100204.02
2023-04-02T03:35:10.903Z,100204.05
2023-04-02T03:37:44.649Z,100208.90
2023-04-02T03:40:19.235Z,100205.04
2023-04-02T03:43:01.143Z,100205.98
2023-04-02T03:45:34.507Z,100207.81
2023-04-02T03:48:13.506Z,100207.73
2023-04-02T03:50:57.088Z,100205.23
2023-04-02T03:53:26.406Z,100199.98
2023-04-02T03:55:54.501Z,100195.92
2023-04-02T03:58:27.970Z,100195.98
2023-04-02T04:01:12.535Z,100193.05
2023-04-02T04:03:50.300Z,100198.55
2023-04-02T04:06:29.861Z,100203.41
2023-04-02T04:09:10.183Z,100201.17
2023-04-02T04:11:49.299Z,100203.99
2023-04-02T04:14:30.934Z,100202.37
2023-04-02T04:17:04.698Z,100202.73
2023-04-02T04:19:47.882Z,100201.56
2023-04-02T04:22:32.900Z,100202.89
2023-04-02T04:25:25.704Z,100208.61
2023-04-02T04:28:12.751Z,100208.09
2023-04-02T04:31:04.292Z,100210.54
2023-04-02T04:33:43.756Z,100213.34
2023-04-02T04:36:28.152Z,100217.06
2023-04-02T04:39:07.636Z,100218.75
2023-04-02T04:41:38.149Z,100216.71
2023-04-02T04:44:35.900Z,100219.23
2023-04-02T04:47:08.785Z,100221.29
2023-04-02T04:50:12.960Z,100221.16
2023-04-02T04:52:48.244Z,100221.92
2023-04-02T04:55:39.484Z,100223.84
2023-04-02T04:58:32.803Z,100227.83
2023-04-02T05:01:06.116Z,100222.70
2023-04-02T05:03:42.822Z,100225.36
2023-04-02T05:06:37.445Z,100220.58
2023-04-02T05:09:31.739Z,100225.16
2023-04-02T05:12:38.137Z,100228.02
2023-04-02T05:15:33.193Z,100228.30
2023-04-02T05:18:52.696Z,100225.10
2023-04-02T05:21:34.277Z,100226.46
2023-04-02T05:24:29.266Z,100230.23
2023-04-02T05:27:00.458Z,100232.17
2023-04-02T05:29:31.842Z,100231.71
2023-04-02T05:32:28.610Z,100234.70
2023-04-02T05:34:57.517Z,100235.04
2023-04-02T05:37:27.656Z,100239.41
2023-04-02T05:39:57.510Z,100238.77
2023-04-02T05:42:31.250Z,100239.03
2023-04-02T05:45:09.154Z,100239.30
2023-04-02T05:47:43.447Z,100236.39
2023-04-02T05:50:27.283Z,100241.08
2023-04-02T05:53:29.942Z,100240.72
2023-04-02T05:56:16.646Z,100238.89
2023-04-02T05:58:55.658Z,100244.16
2023-04-02T06:01:45.832Z,100242.70
2023-04-02T06:04:53.641Z,100244.85
2023-04-02T06:07:24.478Z,100238.30
2023-04-02T06:10:01.561Z,100232.92
2023-04-02T06:12:52.996Z,100234.20
2023-04-02T06:15:23.339Z,100235.48
2023-04-02T06:18:20.536Z,100231.17
2023-04-02T06:20:50.609Z,100230.54
2023-04-02T06:23:24.324Z,100226.95
2023-04-02T06:25:58.031Z,100228.49
2023-04-02T06:28:47.185Z,100226.74
2023-04-02T06:31:28.944Z,100229.48
2023-04-02T06:33:57.920Z,100226.09
2023-04-02T06:36:28.966Z,100229.66
2023-04-02T06:39:08.386Z,100237.33
2023-04-02T06:41:37.420Z,100237.38
2023-04-02T06:44:28.326Z,100242.55
2023-04-02T06:47:27.823Z,100240.03
2023-04-02T06:50:06.745Z,100240.27
2023-04-02T06:52:40.996Z,100238.71
2023-04-02T06:55:22.094Z,100242.66
2023-04-02T06:57:50.856Z,100241.06
2023-04-02T07:00:38.338Z,100235.84
2023-04-02T07:03:29.373Z,100237.44
2023-04-02T07:06:01.082Z,100236.75
2023-04-02T07:08:32.713Z,100240.17
2023-04-02T07:11:01.502Z,100242.29
2023-04-02T07:13:30.306Z,100240.23
2023-04-02T07:15:59.034Z,100246.48
2023-04-02T07:18:30.111Z,100248.18
2023-04-02T07:20:59.439Z,100250.06
2023-04-02T07:23:28.185Z,100249.52
2023-04-02T07:25:57.309Z,100239.19
2023-04-02T07:28:25.985Z,100240.52
2023-04-02T07:30:55.132Z,100236.10
2023-04-02T07:33:25.498Z,100238.30
2023-04-02T07:35:55.115Z,100234.11
2023-04-02T07:38:24.420Z,100232.82
2023-04-02T07:40:53.122Z,100232.38
2023-04-02T07:43:27.018Z,100231.05
2023-04-02T07:45:55.959Z,100229.15
2023-04-02T07:48:26.721Z,100237.89
2023-04-02T07:50:55.228Z,100240.98
2023-04-02T07:53:34.552Z,100235.65
2023-04-02T07:56:10.866Z,100236.69
2023-04-02T07:58:40.100Z,100238.65
2023-04-02T08:01:28.992Z,100234.73
2023-04-02T08:04:05.725Z,100233.55
2023-04-02T08:06:35.435Z,100233.14
2023-04-02T08:09:04.800Z,100227.78
2023-04-02T08:11:32.917Z,100232.13
2023-04-02T08:14:01.595Z,100227.01
2023-04-02T08:16:53.396Z,100226.80
2023-04-02T08:19:25.224Z,100230.52
2023-04-02T08:21:56.799Z,100227.55
2023-04-02T08:24:24.966Z,100225.38
2023-04-02T08:26:54.098Z,100221.45
2023-04-02T08:29:25.463Z,100219.50
2023-04-02T08:31:53.846Z,100219.27
2023-04-02T08:34:22.084Z,100218.61
2023-04-02T08:36:51.536Z,100218.33
2023-04-02T08:39:23.380Z,100212.91
2023-04-02T08:42:04.831Z,100218.52
2023-04-02T08:45:23.596Z,100218.05
2023-04-02T08:47:56.746Z,100219.23
2023-04-02T08:50:34.811Z,100212.46
2023-04-02T08:53:06.149Z,100212.92
2023-04-02T08:56:06.082Z,100213.64
2023-04-02T08:58:41.808Z,100215.55
2023-04-02T09:01:42.724Z,100217.57
2023-04-02T09:04:16.223Z,100217.52
2023-04-02T09:06:44.706Z,100220.79
2023-04-02T09:09:13.280Z,100212.55
2023-04-02T09:11:48.580Z,100210.96
2023-04-02T09:14:21.426Z,100218.89
2023-04-02T09:16:53.845Z,100208.53
2023-04-02T09:19:24.470Z,100211.55
2023-04-02T09:22:02.622Z,100214.41
2023-04-02T09:24:31.467Z,100215.11
2023-04-02T09:26:59.819Z,100213.41
2023-04-02T09:29:43.472Z,100212.12
2023-04-02T09:32:42.537Z,100211.91
2023-04-02T09:35:26.889Z,100212.42
2023-04-02T09:38:07.820Z,100213.41
2023-04-02T09:40:47.696Z,100219.41
2023-04-02T09:43:21.456Z,100221.02
2023-04-02T09:46:13.853Z,100220.32
2023-04-02T09:48:58.526Z,100224.88
2023-04-02T09:51:35.179Z,100224.30
2023-04-02T09:54:03.563Z,100230.31
2023-04-02T09:56:35.647Z,100230.41
2023-04-02T09:59:13.501Z,100231.90
2023-04-02T10:01:48.123Z,100229.20
2023-04-02T10:04:41.111Z,100229.00
2023-04-02T10:07:30.821Z,100233.05
2023-04-02T10:10:29.233Z,100229.70
2023-04-02T10:13:07.396Z,100237.00
2023-04-02T10:16:01.363Z,100234.16
2023-04-02T10:18:51.985Z,100233.67
2023-04-02T10:21:33.661Z,100234.21
2023-04-02T10:24:03.157Z,100237.23
2023-04-02T10:26:58.643Z,100233.17
2023-04-02T10:29:48.987Z,100231.40
2023-04-02T10:32:25.633Z,100228.79
2023-04-02T10:35:09.298Z,100225.69
2023-04-02T10:37:47.382Z,100228.13
2023-04-02T10:40:27.607Z,100225.09
2023-04-02T10:43:21.001Z,100226.64
2023-04-02T10:46:04.537Z,100223.92
2023-04-02T10:48:55.418Z,100222.52
2023-04-02T10:51:42.417Z,100220.66
2023-04-02T10:54:39.094Z,100223.23
2023-04-02T10:57:36.619Z,100220.38
2023-04-02T11:00:16.882Z,100220.01
2023-04-02T11:02:52.522Z,100219.43
2023-04-02T11:05:27.207Z,100217.21
2023-04-02T11:07:57.977Z,100216.65
2023-04-02T11:10:26.347Z,100215.23
2023-04-02T11:13:09.559Z,100214.90
2023-04-02T11:15:39.133Z,100210.43
2023-04-02T11:18:07.419Z,100209.39
2023-04-02T11:20:50.036Z,100202.96
2023-04-02T11:23:23.025Z,100206.63
2023-04-02T11:26:05.777Z,100204.80
2023-04-02T11:28:34.477Z,100207.91
2023-04-02T11:31:04.930Z,100204.69
2023-04-02T11:33:45.482Z,100200.24
2023-04-02T11:36:55.883Z,100199.23
2023-04-02T11:39:48.350Z,100194.06
2023-04-02T11:42:19.927Z,100192.45
2023-04-02T11:44:48.419Z,100187.84
2023-04-02T11:47:18.899Z,100186.90
2023-04-02T11:50:02.309Z,100184.02
2023-04-02T11:52:38.734Z,100182.50
2023-04-02T11:55:27.349Z,100175.30
2023-04-02T11:58:27.095Z,100180.05
2023-04-02T12:13:51.647Z,100175.49
2023-04-02T12:16:18.849Z,100174.99
2023-04-02T12:18:53.489Z,100179.71
2023-04-02T12:21:23.903Z,100173.70
2023-04-02T12:23:52.233Z,100172.02
2023-04-02T12:26:36.605Z,100172.32
2023-04-02T12:29:38.482Z,100172.20
2023-04-02T12:32:23.721Z,100167.15
2023-04-02T12:34:51.940Z,100170.86
2023-04-02T12:37:24.594Z,100166.94
2023-04-02T12:40:06.589Z,100171.02
2023-04-02T12:42:39.901Z,100165.11
2023-04-02T12:45:08.402Z,100165.96
2023-04-02T12:47:36.037Z,100163.39
2023-04-02T12:50:08.738Z,100167.61
2023-04-02T12:52:36.181Z,100167.52
2023-04-02T12:55:07.122Z,100171.27
2023-04-02T12:57:35.666Z,100168.36
2023-04-02T13:00:22.179Z,100175.30
2023-04-02T13:03:02.743Z,100179.45
2023-04-02T13:05:52.369Z,100177.39
2023-04-02T13:08:25.762Z,100188.77
2023-04-02T13:10:58.756Z,100187.07
2023-04-02T13:13:29.632Z,100187.16
2023-04-02T13:16:04.165Z,100188.41
2023-04-02T13:18:32.314Z,100190.02
2023-04-02T13:21:00.670Z,100200.67
2023-04-02T13:26:31.418Z,100216.21
2023-04-02T13:29:15.696Z,100215.36
2023-04-02T13:31:44.105Z,100209.95
2023-04-02T13:34:12.678Z,100212.09
2023-04-02T13:36:41.734Z,100209.45
2023-04-02T13:39:11.199Z,100207.66
2023-04-02T13:41:56.011Z,100208.67
2023-04-02T13:44:28.201Z,100215.34
2023-04-02T13:46:59.929Z,100216.72
2023-04-02T13:49:28.312Z,100221.26
2023-04-02T13:52:03.226Z,100216.00
2023-04-02T13:54:44.496Z,100219.00
2023-04-02T13:57:13.072Z,100220.45
2023-04-02T13:59:41.971Z,100214.80
2023-04-02T14:02:14.373Z,100213.66
2023-04-02T14:04:50.145Z,100209.05
2023-04-02T14:07:22.053Z,100211.46
2023-04-02T14:10:10.714Z,100203.39
2023-04-02T14:13:03.554Z,100208.00
2023-04-02T14:16:10.175Z,100209.14
2023-04-02T14:18:49.105Z,100214.55
2023-04-02T14:21:31.497Z,100212.23
2023-04-02T14:24:35.864Z,100211.30
2023-04-02T14:27:25.745Z,100212.19
2023-04-02T14:30:01.424Z,100203.20
2023-04-02T14:32:59.342Z,100201.94
2023-04-02T14:35:35.523Z,100196.94
2023-04-02T14:38:21.554Z,100199.23
2023-04-02T14:41:22.284Z,100198.25
2023-04-02T14:43:57.287Z,100199.65
2023-04-02T14:46:27.278Z,100204.28
2023-04-02T14:49:21.351Z,100204.77
2023-04-02T14:52:06.922Z,100200.35
2023-04-02T14:54:50.328Z,100196.17
2023-04-02T14:57:31.077Z,100196.06
2023-04-02T15:00:20.811Z,100195.69
2023-04-02T15:02:55.412Z,100192.54
2023-04-02T15:06:01.883Z,100198.08
2023-04-02T15:08:32.129Z,100195.29
2023-04-02T15:11:21.658Z,100195.67
2023-04-02T15:14:05.549Z,100197.95
2023-04-02T15:16:36.681Z,100196.38
2023-04-02T15:19:16.167Z,100198.18
2023-04-02T15:22:08.866Z,100200.55
2023-04-02T15:24:55.174Z,100200.13
2023-04-02T15:27:27.251Z,100196.94
2023-04-02T15:30:02.093Z,100199.79
2023-04-02T15:32:34.454Z,100203.02
2023-04-02T15:35:38.056Z,100200.80
2023-04-02T15:38:38.848Z,100198.60
2023-04-02T15:41:12.008Z,100199.73
2023-04-02T15:43:56.782Z,100200.70
2023-04-02T15:46:37.514Z,100199.61
2023-04-02T15:49:38.236Z,100197.73
2023-04-02T15:52:27.809Z,100201.64
2023-04-02T15:54:57.110Z,100199.83
2023-04-02T15:58:01.589Z,100198.91
2023-04-02T16:00:31.377Z,100201.66
2023-04-02T16:03:24.096Z,100193.35
2023-04-02T16:06:17.390Z,100192.91
2023-04-02T16:09:13.557Z,100188.42
2023-04-02T16:11:42.166Z,100186.58
2023-04-02T16:14:29.785Z,100186.27
2023-04-02T16:17:17.843Z,100184.23
2023-04-02T16:20:13.375Z,100189.16
2023-04-02T16:22:53.289Z,100191.96
2023-04-02T16:25:32.081Z,100192.27
2023-04-02T16:28:19.423Z,100191.63
2023-04-02T16:30:54.723Z,100193.39
2023-04-02T16:33:35.710Z,100197.93
2023-04-02T16:36:21.805Z,100192.48
2023-04-02T16:39:13.511Z,100191.06
2023-04-02T16:42:10.711Z,100198.62
2023-04-02T16:44:50.563Z,100196.13
2023-04-02T16:47:44.494Z,100196.83
2023-04-02T16:50:40.972Z,100192.08
2023-04-02T16:53:17.841Z,100186.48
2023-04-02T16:56:09.912Z,100179.02
2023-04-02T16:58:58.021Z,100176.61
2023-04-02T17:01:29.168Z,100178.27
2023-04-02T17:04:21.711Z,100171.89
2023-04-02T17:06:50.495Z,100170.35
2023-04-02T17:09:35.863Z,100166.40
2023-04-02T17:12:05.406Z,100164.95
2023-04-02T17:14:41.689Z,100163.02
2023-04-02T17:17:11.840Z,100163.60
2023-04-02T17:19:40.966Z,100164.41
2023-04-02T17:22:15.993Z,100162.82
2023-04-02T17:24:58.187Z,100165.13
2023-04-02T17:27:38.306Z,100161.17
2023-04-02T17:30:17.529Z,100165.05
2023-04-02T17:32:47.898Z,100165.40
2023-04-02T17:35:18.074Z,100158.92
2023-04-02T17:37:55.548Z,100158.38
2023-04-02T17:40:29.699Z,100158.04
2023-04-02T17:43:04.984Z,100159.55
2023-04-02T17:45:45.892Z,100160.70
2023-04-02T17:48:19.110Z,100158.39
2023-04-02T17:51:07.339Z,100154.98
2023-04-02T17:53:58.989Z,100154.38
2023-04-02T17:57:06.539Z,100150.83
2023-04-02T17:59:46.434Z,100146.49
2023-04-02T18:02:52.370Z,100140.60
2023-04-02T18:05:28.452Z,100139.70
2023-04-02T18:08:32.407Z,100140.20
2023-04-02T18:11:10.221Z,100135.47
2023-04-02T18:14:19.452Z,100131.60
2023-04-02T18:17:09.664Z,100129.23
2023-04-02T18:19:49.019Z,100127.14
2023-04-02T18:22:47.201Z,100126.33
2023-04-02T18:25:18.695Z,100125.15
2023-04-02T18:28:21.122Z,100120.80
2023-04-02T18:31:11.155Z,100117.90
2023-04-02T18:34:00.039Z,100115.97
2023-04-02T18:36:32.128Z,100108.04
2023-04-02T18:39:08.137Z,100106.02
2023-04-02T18:41:51.751Z,100105.77
2023-04-02T18:44:20.073Z,100103.58
2023-04-02T18:46:54.152Z,100103.17
2023-04-02T18:49:39.468Z,100092.65
2023-04-02T18:52:15.560Z,100091.04
2023-04-02T18:54:57.192Z,100088.45
2023-04-02T18:57:36.275Z,100091.77
2023-04-02T19:00:05.943Z,100089.48
2023-04-02T19:03:06.009Z,100090.48
2023-04-02T19:05:44.979Z,100088.86
2023-04-02T19:08:22.058Z,100090.84
2023-04-02T19:11:28.716Z,100086.05
2023-04-02T19:14:05.197Z,100082.13
2023-04-02T19:17:13.072Z,100080.48
2023-04-02T19:19:48.130Z,100082.39
2023-04-02T19:22:49.203Z,100079.21
2023-04-02T19:25:56.236Z,100077.48
2023-04-02T19:28:34.669Z,100085.30
2023-04-02T19:31:31.050Z,100084.98
2023-04-02T19:34:11.848Z,100078.00
2023-04-02T19:36:47.862Z,100077.41
2023-04-02T19:39:35.155Z,100075.33
2023-04-02T19:42:16.777Z,100074.98
2023-04-02T19:44:49.441Z,100074.84
2023-04-02T19:47:18.186Z,100068.59
2023-04-02T19:49:47.130Z,100072.45
2023-04-02T19:52:15.557Z,100069.67
2023-04-02T19:54:43.803Z,100069.11
2023-04-02T19:57:15.612Z,100067.23
2023-04-02T19:59:44.050Z,100064.48
2023-04-02T20:02:12.481Z,100058.33
2023-04-02T20:04:43.969Z,100055.36
2023-04-02T20:07:12.112Z,100052.07
2023-04-02T20:09:40.525Z,100050.45
2023-04-02T20:12:09.841Z,100046.55
2023-04-02T20:14:39.084Z,100043.32
2023-04-02T20:17:07.472Z,100039.50
2023-04-02T20:19:35.784Z,100039.75
2023-04-02T20:22:04.341Z,100039.02
2023-04-02T20:24:32.893Z,100035.33
2023-04-02T20:27:07.148Z,100032.50
2023-04-02T20:29:35.647Z,100034.60
2023-04-02T20:32:04.046Z,100033.20
2023-04-02T20:34:32.642Z,100034.15
2023-04-02T20:37:01.888Z,100032.58
2023-04-02T20:39:30.458Z,100026.59
2023-04-02T20:42:02.724Z,100025.48
2023-04-02T20:44:32.078Z,100026.10
2023-04-02T20:47:00.871Z,100025.40
2023-04-02T20:49:29.243Z,100023.40
2023-04-02T20:51:59.434Z,100022.84
2023-04-02T20:54:27.667Z,100022.06
2023-04-02T20:56:59.343Z,100013.61
2023-04-02T20:59:27.557Z,100011.86
2023-04-02T21:01:56.161Z,100011.61
2023-04-02T21:04:24.735Z,100009.67
2023-04-02T21:06:57.142Z,100009.30
2023-04-02T21:09:25.299Z,100010.72
2023-04-02T21:11:54.013Z,100010.82
2023-04-02T21:14:22.142Z,100006.73
2023-04-02T21:16:50.483Z,100005.01
2023-04-02T21:19:18.836Z,100000.13
2023-04-02T21:21:47.191Z,99997.95
2023-04-02T21:24:15.724Z,99995.17
2023-04-02T21:26:46.549Z,99994.77
2023-04-02T21:29:14.809Z,99993.89
2023-04-02T21:31:43.185Z,99993.91
2023-04-02T21:34:15.732Z,99995.38
2023-04-02T21:36:46.269Z,99994.93
2023-04-02T21:39:20.550Z,99991.48
2023-04-02T21:41:53.332Z,99989.70
2023-04-02T21:44:22.525Z,99987.27
2023-04-02T21:46:53.566Z,99986.89
2023-04-02T21:49:23.449Z,99985.14
2023-04-02T21:51:51.873Z,99984.95
2023-04-02T21:54:21.448Z,99985.75
2023-04-02T21:56:49.742Z,99980.34
2023-04-02T21:59:18.144Z,99983.83
2023-04-02T22:01:48.739Z,99980.63
2023-04-02T22:04:24.900Z,99978.58
2023-04-02T22:06:53.445Z,99980.76
2023-04-02T22:09:23.044Z,99975.35
2023-04-02T22:11:54.602Z,99969.80
2023-04-02T22:14:23.231Z,99968.13
2023-04-02T22:16:52.343Z,99968.08
2023-04-02T22:19:21.605Z,99963.55
2023-04-02T22:21:50.701Z,99965.89
2023-04-02T22:24:27.261Z,99964.03
2023-04-02T22:26:57.540Z,99963.08
2023-04-02T22:29:25.981Z,99960.81
2023-04-02T22:31:54.295Z,99954.73
2023-04-02T22:34:22.634Z,99953.83
2023-04-02T22:36:50.827Z,99950.77
2023-04-02T22:39:21.880Z,99947.12
2023-04-02T22:41:50.054Z,99941.93
2023-04-02T22:44:18.383Z,99934.67
2023-04-02T22:46:46.966Z,99926.91
2023-04-02T22:49:19.563Z,99925.19
2023-04-02T22:51:48.405Z,99923.42
2023-04-02T22:54:16.695Z,99914.77
2023-04-02T22:56:44.983Z,99912.39
2023-04-02T22:59:13.435Z,99908.05
2023-04-02T23:01:44.175Z,99909.91
2023-04-02T23:04:12.883Z,99901.95
2023-04-02T23:06:41.695Z,99896.98
2023-04-02T23:09:10.573Z,99891.23
2023-04-02T23:11:41.842Z,99888.50
2023-04-02T23:14:10.438Z,99886.98
2023-04-02T23:16:38.801Z,99880.59
2023-04-02T23:19:07.708Z,99881.16
2023-04-02T23:21:35.990Z,99878.73
2023-04-02T23:24:04.356Z,99883.84
2023-04-02T23:26:33.054Z,99881.40
2023-04-02T23:29:02.011Z,99880.92
2023-04-02T23:31:30.772Z,99881.64
2023-04-02T23:33:59.240Z,99881.50
2023-04-02T23:36:35.050Z,99878.58
2023-04-02T23:39:08.036Z,99876.75
2023-04-02T23:41:38.313Z,99874.43
2023-04-02T23:44:06.775Z,99866.86
2023-04-02T23:46:35.524Z,99862.98
2023-04-02T23:49:04.192Z,99855.52
2023-04-02T23:51:33.258Z,99852.58
2023-04-02T23:54:01.821Z,99853.07
2023-04-02T23:56:31.810Z,99848.32
2023-04-02T23:58:59.961Z,99844.14
